sensor_id;sensor_type;location;lat;lon;timestamp;P1;durP1;ratioP1;P2;durP2;ratioP2
59042;SDS011;44826;51.596;5.624;2023-11-19T00:01:04;5.68;;;4.82;;
59042;SDS011;44826;51.596;5.624;2023-11-19T00:03:30;5.72;;;4.70;;
59042;SDS011;44826;51.596;5.624;2023-11-19T00:05:55;6.47;;;5.18;;
59042;SDS011;44826;51.596;5.624;2023-11-19T00:08:21;6.75;;;5.03;;
59042;SDS011;44826;51.596;5.624;2023-11-19T00:10:46;8.70;;;5.38;;
59042;SDS011;44826;51.596;5.624;2023-11-19T00:13:12;7.55;;;4.80;;
59042;SDS011;44826;51.596;5.624;2023-11-19T00:15:37;6.18;;;4.65;;
59042;SDS011;44826;51.596;5.624;2023-11-19T00:18:02;6.85;;;4.43;;
59042;SDS011;44826;51.596;5.624;2023-11-19T00:20:29;6.53;;;4.50;;
59042;SDS011;44826;51.596;5.624;2023-11-19T00:22:55;5.97;;;4.38;;
59042;SDS011;44826;51.596;5.624;2023-11-19T00:25:20;10.23;;;4.57;;
59042;SDS011;44826;51.596;5.624;2023-11-19T00:27:49;6.63;;;4.78;;
59042;SDS011;44826;51.596;5.624;2023-11-19T00:30:15;7.05;;;4.80;;
59042;SDS011;44826;51.596;5.624;2023-11-19T00:32:41;7.57;;;4.45;;
59042;SDS011;44826;51.596;5.624;2023-11-19T00:35:07;8.48;;;4.50;;
59042;SDS011;44826;51.596;5.624;2023-11-19T00:37:33;10.13;;;4.45;;
59042;SDS011;44826;51.596;5.624;2023-11-19T00:40:00;9.35;;;4.78;;
59042;SDS011;44826;51.596;5.624;2023-11-19T00:42:25;6.53;;;4.22;;
59042;SDS011;44826;51.596;5.624;2023-11-19T00:44:51;6.20;;;4.50;;
59042;SDS011;44826;51.596;5.624;2023-11-19T00:47:16;7.20;;;4.20;;
59042;SDS011;44826;51.596;5.624;2023-11-19T00:49:45;7.22;;;4.35;;
59042;SDS011;44826;51.596;5.624;2023-11-19T00:52:11;9.55;;;4.40;;
59042;SDS011;44826;51.596;5.624;2023-11-19T00:54:36;8.15;;;4.25;;
59042;SDS011;44826;51.596;5.624;2023-11-19T00:57:01;7.70;;;4.05;;
59042;SDS011;44826;51.596;5.624;2023-11-19T00:59:26;7.88;;;3.67;;
59042;SDS011;44826;51.596;5.624;2023-11-19T01:01:53;5.82;;;3.47;;
59042;SDS011;44826;51.596;5.624;2023-11-19T01:04:19;7.80;;;3.58;;
59042;SDS011;44826;51.596;5.624;2023-11-19T01:06:44;6.90;;;3.55;;
59042;SDS011;44826;51.596;5.624;2023-11-19T01:09:09;5.40;;;3.15;;
59042;SDS011;44826;51.596;5.624;2023-11-19T01:11:35;5.45;;;2.95;;
59042;SDS011;44826;51.596;5.624;2023-11-19T01:14:00;6.43;;;2.90;;
59042;SDS011;44826;51.596;5.624;2023-11-19T01:16:26;8.82;;;2.95;;
59042;SDS011;44826;51.596;5.624;2023-11-19T01:18:51;9.02;;;3.22;;
59042;SDS011;44826;51.596;5.624;2023-11-19T01:21:17;7.95;;;3.03;;
59042;SDS011;44826;51.596;5.624;2023-11-19T01:23:43;6.72;;;2.70;;
59042;SDS011;44826;51.596;5.624;2023-11-19T01:26:09;5.97;;;2.95;;
59042;SDS011;44826;51.596;5.624;2023-11-19T01:28:35;5.47;;;2.50;;
59042;SDS011;44826;51.596;5.624;2023-11-19T01:31:04;6.95;;;2.80;;
59042;SDS011;44826;51.596;5.624;2023-11-19T01:33:30;7.38;;;2.97;;
59042;SDS011;44826;51.596;5.624;2023-11-19T01:35:56;5.72;;;2.42;;
59042;SDS011;44826;51.596;5.624;2023-11-19T01:38:23;9.27;;;3.15;;
59042;SDS011;44826;51.596;5.624;2023-11-19T01:40:49;9.07;;;2.97;;
59042;SDS011;44826;51.596;5.624;2023-11-19T01:43:30;6.18;;;2.70;;
59042;SDS011;44826;51.596;5.624;2023-11-19T01:45:57;9.23;;;2.90;;
59042;SDS011;44826;51.596;5.624;2023-11-19T01:48:22;8.57;;;2.58;;
59042;SDS011;44826;51.596;5.624;2023-11-19T01:50:47;9.98;;;2.80;;
59042;SDS011;44826;51.596;5.624;2023-11-19T01:53:12;7.97;;;2.70;;
59042;SDS011;44826;51.596;5.624;2023-11-19T01:55:38;9.85;;;3.00;;
59042;SDS011;44826;51.596;5.624;2023-11-19T01:58:03;7.72;;;3.28;;
59042;SDS011;44826;51.596;5.624;2023-11-19T02:00:28;8.45;;;2.80;;
59042;SDS011;44826;51.596;5.624;2023-11-19T02:02:55;9.75;;;2.35;;
59042;SDS011;44826;51.596;5.624;2023-11-19T02:05:21;6.03;;;2.65;;
59042;SDS011;44826;51.596;5.624;2023-11-19T02:07:48;5.10;;;2.50;;
59042;SDS011;44826;51.596;5.624;2023-11-19T02:10:15;8.68;;;2.88;;
59042;SDS011;44826;51.596;5.624;2023-11-19T02:12:41;9.57;;;2.70;;
59042;SDS011;44826;51.596;5.624;2023-11-19T02:15:10;11.07;;;2.83;;
59042;SDS011;44826;51.596;5.624;2023-11-19T02:17:35;8.93;;;2.85;;
59042;SDS011;44826;51.596;5.624;2023-11-19T02:20:03;8.63;;;2.40;;
59042;SDS011;44826;51.596;5.624;2023-11-19T02:22:31;7.80;;;2.60;;
59042;SDS011;44826;51.596;5.624;2023-11-19T02:24:59;7.93;;;2.65;;
59042;SDS011;44826;51.596;5.624;2023-11-19T02:30:24;12.82;;;3.30;;
59042;SDS011;44826;51.596;5.624;2023-11-19T02:32:54;8.48;;;2.80;;
59042;SDS011;44826;51.596;5.624;2023-11-19T02:35:27;9.70;;;2.90;;
59042;SDS011;44826;51.596;5.624;2023-11-19T02:37:54;16.42;;;3.45;;
59042;SDS011;44826;51.596;5.624;2023-11-19T02:40:20;11.95;;;3.63;;
59042;SDS011;44826;51.596;5.624;2023-11-19T02:42:49;16.10;;;3.33;;
59042;SDS011;44826;51.596;5.624;2023-11-19T02:45:14;12.93;;;3.50;;
59042;SDS011;44826;51.596;5.624;2023-11-19T02:47:40;13.27;;;3.30;;
59042;SDS011;44826;51.596;5.624;2023-11-19T02:50:07;12.73;;;2.90;;
59042;SDS011;44826;51.596;5.624;2023-11-19T02:52:39;13.68;;;3.00;;
59042;SDS011;44826;51.596;5.624;2023-11-19T02:55:05;13.02;;;3.00;;
59042;SDS011;44826;51.596;5.624;2023-11-19T02:57:34;11.40;;;3.03;;
59042;SDS011;44826;51.596;5.624;2023-11-19T03:00:00;14.45;;;3.00;;
59042;SDS011;44826;51.596;5.624;2023-11-19T03:02:25;11.07;;;3.15;;
59042;SDS011;44826;51.596;5.624;2023-11-19T03:04:58;11.50;;;2.85;;
59042;SDS011;44826;51.596;5.624;2023-11-19T03:07:24;10.23;;;2.97;;
59042;SDS011;44826;51.596;5.624;2023-11-19T03:09:49;17.05;;;3.08;;
59042;SDS011;44826;51.596;5.624;2023-11-19T03:12:14;15.15;;;2.90;;
59042;SDS011;44826;51.596;5.624;2023-11-19T03:14:40;15.68;;;2.97;;
59042;SDS011;44826;51.596;5.624;2023-11-19T03:17:05;14.15;;;2.90;;
59042;SDS011;44826;51.596;5.624;2023-11-19T03:19:30;12.27;;;2.70;;
59042;SDS011;44826;51.596;5.624;2023-11-19T03:21:56;12.50;;;2.50;;
59042;SDS011;44826;51.596;5.624;2023-11-19T03:24:21;16.15;;;2.78;;
59042;SDS011;44826;51.596;5.624;2023-11-19T03:26:50;16.10;;;2.70;;
59042;SDS011;44826;51.596;5.624;2023-11-19T03:29:15;13.45;;;2.55;;
59042;SDS011;44826;51.596;5.624;2023-11-19T03:31:44;13.93;;;2.55;;
59042;SDS011;44826;51.596;5.624;2023-11-19T03:34:12;13.77;;;3.40;;
59042;SDS011;44826;51.596;5.624;2023-11-19T03:36:37;15.77;;;3.47;;
59042;SDS011;44826;51.596;5.624;2023-11-19T03:39:02;14.32;;;2.60;;
59042;SDS011;44826;51.596;5.624;2023-11-19T03:41:28;13.80;;;2.47;;
59042;SDS011;44826;51.596;5.624;2023-11-19T03:43:53;11.57;;;2.28;;
59042;SDS011;44826;51.596;5.624;2023-11-19T03:46:19;16.98;;;2.70;;
59042;SDS011;44826;51.596;5.624;2023-11-19T03:48:46;15.98;;;2.40;;
59042;SDS011;44826;51.596;5.624;2023-11-19T03:51:12;19.60;;;2.80;;
59042;SDS011;44826;51.596;5.624;2023-11-19T03:53:40;12.00;;;2.10;;
59042;SDS011;44826;51.596;5.624;2023-11-19T03:56:07;16.10;;;3.15;;
59042;SDS011;44826;51.596;5.624;2023-11-19T03:58:34;15.27;;;2.75;;
59042;SDS011;44826;51.596;5.624;2023-11-19T04:01:00;18.17;;;2.70;;
59042;SDS011;44826;51.596;5.624;2023-11-19T04:03:26;18.70;;;2.70;;
59042;SDS011;44826;51.596;5.624;2023-11-19T04:05:51;16.15;;;2.25;;
59042;SDS011;44826;51.596;5.624;2023-11-19T04:08:16;18.88;;;2.88;;
59042;SDS011;44826;51.596;5.624;2023-11-19T04:10:41;16.27;;;2.65;;
59042;SDS011;44826;51.596;5.624;2023-11-19T04:13:07;18.42;;;2.35;;
59042;SDS011;44826;51.596;5.624;2023-11-19T04:15:32;18.33;;;2.67;;
59042;SDS011;44826;51.596;5.624;2023-11-19T04:17:57;22.98;;;3.40;;
59042;SDS011;44826;51.596;5.624;2023-11-19T04:20:22;20.83;;;2.83;;
59042;SDS011;44826;51.596;5.624;2023-11-19T04:22:49;24.05;;;3.25;;
59042;SDS011;44826;51.596;5.624;2023-11-19T04:25:15;19.20;;;2.80;;
59042;SDS011;44826;51.596;5.624;2023-11-19T04:27:41;17.27;;;2.70;;
59042;SDS011;44826;51.596;5.624;2023-11-19T04:30:06;14.90;;;2.60;;
59042;SDS011;44826;51.596;5.624;2023-11-19T04:32:32;19.75;;;2.88;;
59042;SDS011;44826;51.596;5.624;2023-11-19T04:34:57;20.30;;;3.20;;
59042;SDS011;44826;51.596;5.624;2023-11-19T04:37:22;14.15;;;2.47;;
59042;SDS011;44826;51.596;5.624;2023-11-19T04:39:48;15.27;;;2.58;;
59042;SDS011;44826;51.596;5.624;2023-11-19T04:42:13;22.85;;;3.00;;
59042;SDS011;44826;51.596;5.624;2023-11-19T04:44:42;18.45;;;2.70;;
59042;SDS011;44826;51.596;5.624;2023-11-19T04:47:08;20.13;;;3.25;;
59042;SDS011;44826;51.596;5.624;2023-11-19T04:49:35;14.32;;;3.08;;
59042;SDS011;44826;51.596;5.624;2023-11-19T04:52:05;15.95;;;3.33;;
59042;SDS011;44826;51.596;5.624;2023-11-19T04:54:30;19.40;;;3.28;;
59042;SDS011;44826;51.596;5.624;2023-11-19T04:56:55;22.30;;;3.15;;
59042;SDS011;44826;51.596;5.624;2023-11-19T04:59:21;21.58;;;3.03;;
59042;SDS011;44826;51.596;5.624;2023-11-19T05:01:46;17.77;;;3.03;;
59042;SDS011;44826;51.596;5.624;2023-11-19T05:04:13;23.63;;;3.85;;
59042;SDS011;44826;51.596;5.624;2023-11-19T05:06:38;17.77;;;3.80;;
59042;SDS011;44826;51.596;5.624;2023-11-19T05:09:03;15.75;;;3.28;;
59042;SDS011;44826;51.596;5.624;2023-11-19T05:11:32;15.15;;;2.95;;
59042;SDS011;44826;51.596;5.624;2023-11-19T05:13:57;18.75;;;3.35;;
59042;SDS011;44826;51.596;5.624;2023-11-19T05:16:23;19.10;;;3.72;;
59042;SDS011;44826;51.596;5.624;2023-11-19T05:18:48;18.25;;;3.17;;
59042;SDS011;44826;51.596;5.624;2023-11-19T05:21:13;22.10;;;3.50;;
59042;SDS011;44826;51.596;5.624;2023-11-19T05:23:39;17.98;;;3.00;;
59042;SDS011;44826;51.596;5.624;2023-11-19T05:26:04;15.95;;;3.33;;
59042;SDS011;44826;51.596;5.624;2023-11-19T05:28:30;16.92;;;3.30;;
59042;SDS011;44826;51.596;5.624;2023-11-19T05:30:55;18.33;;;3.08;;
59042;SDS011;44826;51.596;5.624;2023-11-19T05:33:21;24.88;;;3.15;;
59042;SDS011;44826;51.596;5.624;2023-11-19T05:35:46;18.70;;;3.08;;
59042;SDS011;44826;51.596;5.624;2023-11-19T05:38:11;14.45;;;3.42;;
59042;SDS011;44826;51.596;5.624;2023-11-19T05:40:37;18.58;;;2.95;;
59042;SDS011;44826;51.596;5.624;2023-11-19T05:43:03;18.40;;;3.45;;
59042;SDS011;44826;51.596;5.624;2023-11-19T05:45:29;20.63;;;2.72;;
59042;SDS011;44826;51.596;5.624;2023-11-19T05:47:54;18.35;;;2.50;;
59042;SDS011;44826;51.596;5.624;2023-11-19T05:50:19;21.17;;;3.38;;
59042;SDS011;44826;51.596;5.624;2023-11-19T05:52:45;15.30;;;2.35;;
59042;SDS011;44826;51.596;5.624;2023-11-19T05:55:11;20.58;;;2.88;;
59042;SDS011;44826;51.596;5.624;2023-11-19T05:57:37;18.45;;;2.70;;
59042;SDS011;44826;51.596;5.624;2023-11-19T06:00:03;15.82;;;2.60;;
59042;SDS011;44826;51.596;5.624;2023-11-19T06:02:32;14.93;;;2.47;;
59042;SDS011;44826;51.596;5.624;2023-11-19T06:04:57;19.73;;;2.88;;
59042;SDS011;44826;51.596;5.624;2023-11-19T06:07:23;17.35;;;3.33;;
59042;SDS011;44826;51.596;5.624;2023-11-19T06:09:48;19.30;;;2.95;;
59042;SDS011;44826;51.596;5.624;2023-11-19T06:12:13;18.88;;;2.95;;
59042;SDS011;44826;51.596;5.624;2023-11-19T06:14:39;14.68;;;2.47;;
59042;SDS011;44826;51.596;5.624;2023-11-19T06:17:05;20.52;;;2.92;;
59042;SDS011;44826;51.596;5.624;2023-11-19T06:19:30;20.17;;;3.05;;
59042;SDS011;44826;51.596;5.624;2023-11-19T06:21:56;19.42;;;3.38;;
59042;SDS011;44826;51.596;5.624;2023-11-19T06:24:21;18.38;;;2.38;;
59042;SDS011;44826;51.596;5.624;2023-11-19T06:26:47;19.27;;;2.65;;
59042;SDS011;44826;51.596;5.624;2023-11-19T06:29:12;18.45;;;3.13;;
59042;SDS011;44826;51.596;5.624;2023-11-19T06:31:43;16.33;;;2.65;;
59042;SDS011;44826;51.596;5.624;2023-11-19T06:34:08;12.32;;;2.65;;
59042;SDS011;44826;51.596;5.624;2023-11-19T06:36:34;21.52;;;3.38;;
59042;SDS011;44826;51.596;5.624;2023-11-19T06:38:59;17.85;;;2.75;;
59042;SDS011;44826;51.596;5.624;2023-11-19T06:41:24;21.85;;;2.83;;
59042;SDS011;44826;51.596;5.624;2023-11-19T06:43:49;22.60;;;2.63;;
59042;SDS011;44826;51.596;5.624;2023-11-19T06:46:15;20.83;;;3.03;;
59042;SDS011;44826;51.596;5.624;2023-11-19T06:48:41;12.52;;;2.38;;
59042;SDS011;44826;51.596;5.624;2023-11-19T06:51:09;19.20;;;3.28;;
59042;SDS011;44826;51.596;5.624;2023-11-19T06:53:34;23.02;;;3.50;;
59042;SDS011;44826;51.596;5.624;2023-11-19T06:55:59;21.40;;;2.78;;
59042;SDS011;44826;51.596;5.624;2023-11-19T06:58:25;18.02;;;2.72;;
59042;SDS011;44826;51.596;5.624;2023-11-19T07:00:50;19.42;;;3.38;;
59042;SDS011;44826;51.596;5.624;2023-11-19T07:03:16;18.65;;;2.80;;
59042;SDS011;44826;51.596;5.624;2023-11-19T07:05:41;18.63;;;3.15;;
59042;SDS011;44826;51.596;5.624;2023-11-19T07:08:06;24.17;;;2.97;;
59042;SDS011;44826;51.596;5.624;2023-11-19T07:10:35;15.90;;;2.75;;
59042;SDS011;44826;51.596;5.624;2023-11-19T07:13:00;20.55;;;2.78;;
59042;SDS011;44826;51.596;5.624;2023-11-19T07:15:25;21.20;;;2.85;;
59042;SDS011;44826;51.596;5.624;2023-11-19T07:17:51;17.08;;;2.55;;
59042;SDS011;44826;51.596;5.624;2023-11-19T07:22:46;17.23;;;3.17;;
59042;SDS011;44826;51.596;5.624;2023-11-19T07:25:15;17.63;;;2.45;;
59042;SDS011;44826;51.596;5.624;2023-11-19T07:27:40;23.30;;;2.90;;
59042;SDS011;44826;51.596;5.624;2023-11-19T07:30:06;18.60;;;2.90;;
59042;SDS011;44826;51.596;5.624;2023-11-19T07:32:32;17.05;;;3.65;;
59042;SDS011;44826;51.596;5.624;2023-11-19T07:34:58;14.57;;;2.60;;
59042;SDS011;44826;51.596;5.624;2023-11-19T07:37:23;20.95;;;3.00;;
59042;SDS011;44826;51.596;5.624;2023-11-19T07:39:49;21.92;;;3.55;;
59042;SDS011;44826;51.596;5.624;2023-11-19T07:42:14;20.20;;;2.80;;
59042;SDS011;44826;51.596;5.624;2023-11-19T07:44:40;18.33;;;3.00;;
59042;SDS011;44826;51.596;5.624;2023-11-19T07:47:06;19.35;;;3.08;;
59042;SDS011;44826;51.596;5.624;2023-11-19T07:49:31;19.25;;;3.05;;
59042;SDS011;44826;51.596;5.624;2023-11-19T07:51:57;21.08;;;2.60;;
59042;SDS011;44826;51.596;5.624;2023-11-19T07:54:22;16.67;;;2.70;;
59042;SDS011;44826;51.596;5.624;2023-11-19T07:56:47;21.27;;;2.97;;
59042;SDS011;44826;51.596;5.624;2023-11-19T07:59:14;22.27;;;3.50;;
59042;SDS011;44826;51.596;5.624;2023-11-19T08:01:40;16.88;;;2.60;;
59042;SDS011;44826;51.596;5.624;2023-11-19T08:04:05;16.58;;;2.70;;
59042;SDS011;44826;51.596;5.624;2023-11-19T08:06:30;17.45;;;2.67;;
59042;SDS011;44826;51.596;5.624;2023-11-19T08:08:56;18.75;;;2.72;;
59042;SDS011;44826;51.596;5.624;2023-11-19T08:11:21;17.55;;;2.80;;
59042;SDS011;44826;51.596;5.624;2023-11-19T08:13:46;17.48;;;2.92;;
59042;SDS011;44826;51.596;5.624;2023-11-19T08:16:12;19.98;;;2.95;;
59042;SDS011;44826;51.596;5.624;2023-11-19T08:18:37;21.60;;;3.10;;
59042;SDS011;44826;51.596;5.624;2023-11-19T08:21:03;20.63;;;3.45;;
59042;SDS011;44826;51.596;5.624;2023-11-19T08:23:29;21.85;;;3.30;;
59042;SDS011;44826;51.596;5.624;2023-11-19T08:25:55;23.13;;;2.75;;
59042;SDS011;44826;51.596;5.624;2023-11-19T08:28:20;18.92;;;3.53;;
59042;SDS011;44826;51.596;5.624;2023-11-19T08:30:45;27.05;;;3.63;;
59042;SDS011;44826;51.596;5.624;2023-11-19T08:33:11;19.27;;;2.95;;
59042;SDS011;44826;51.596;5.624;2023-11-19T08:35:36;18.00;;;2.95;;
59042;SDS011;44826;51.596;5.624;2023-11-19T08:38:01;20.67;;;4.03;;
59042;SDS011;44826;51.596;5.624;2023-11-19T08:40:27;21.38;;;3.80;;
59042;SDS011;44826;51.596;5.624;2023-11-19T08:42:52;18.80;;;3.40;;
59042;SDS011;44826;51.596;5.624;2023-11-19T08:45:18;19.90;;;2.72;;
59042;SDS011;44826;51.596;5.624;2023-11-19T08:47:43;22.00;;;3.45;;
59042;SDS011;44826;51.596;5.624;2023-11-19T08:50:10;17.27;;;2.40;;
59042;SDS011;44826;51.596;5.624;2023-11-19T08:52:36;24.15;;;2.90;;
59042;SDS011;44826;51.596;5.624;2023-11-19T08:55:01;17.88;;;2.67;;
59042;SDS011;44826;51.596;5.624;2023-11-19T08:57:27;26.15;;;3.08;;
59042;SDS011;44826;51.596;5.624;2023-11-19T08:59:53;21.10;;;2.72;;
59042;SDS011;44826;51.596;5.624;2023-11-19T09:02:18;20.35;;;2.92;;
59042;SDS011;44826;51.596;5.624;2023-11-19T09:04:43;19.23;;;2.67;;
59042;SDS011;44826;51.596;5.624;2023-11-19T09:07:09;22.58;;;3.17;;
59042;SDS011;44826;51.596;5.624;2023-11-19T09:09:37;18.70;;;2.90;;
59042;SDS011;44826;51.596;5.624;2023-11-19T09:12:02;16.52;;;2.90;;
59042;SDS011;44826;51.596;5.624;2023-11-19T09:14:29;18.58;;;3.13;;
59042;SDS011;44826;51.596;5.624;2023-11-19T09:16:55;23.30;;;2.95;;
59042;SDS011;44826;51.596;5.624;2023-11-19T09:19:21;16.27;;;2.90;;
59042;SDS011;44826;51.596;5.624;2023-11-19T09:21:46;17.17;;;2.78;;
59042;SDS011;44826;51.596;5.624;2023-11-19T09:24:13;25.20;;;2.80;;
59042;SDS011;44826;51.596;5.624;2023-11-19T09:26:38;22.05;;;3.38;;
59042;SDS011;44826;51.596;5.624;2023-11-19T09:29:06;19.92;;;2.90;;
59042;SDS011;44826;51.596;5.624;2023-11-19T09:31:32;16.45;;;2.83;;
59042;SDS011;44826;51.596;5.624;2023-11-19T09:33:57;18.05;;;3.03;;
59042;SDS011;44826;51.596;5.624;2023-11-19T09:36:23;18.33;;;3.85;;
59042;SDS011;44826;51.596;5.624;2023-11-19T09:38:48;20.13;;;3.13;;
59042;SDS011;44826;51.596;5.624;2023-11-19T09:41:13;17.70;;;2.83;;
59042;SDS011;44826;51.596;5.624;2023-11-19T09:43:39;21.23;;;3.60;;
59042;SDS011;44826;51.596;5.624;2023-11-19T09:46:06;23.02;;;3.55;;
59042;SDS011;44826;51.596;5.624;2023-11-19T09:48:35;20.63;;;3.00;;
59042;SDS011;44826;51.596;5.624;2023-11-19T09:51:05;27.35;;;3.33;;
59042;SDS011;44826;51.596;5.624;2023-11-19T09:53:32;19.65;;;2.85;;
59042;SDS011;44826;51.596;5.624;2023-11-19T09:55:59;20.48;;;2.90;;
59042;SDS011;44826;51.596;5.624;2023-11-19T09:58:27;20.13;;;2.85;;
59042;SDS011;44826;51.596;5.624;2023-11-19T10:00:53;24.27;;;3.10;;
59042;SDS011;44826;51.596;5.624;2023-11-19T10:03:18;14.98;;;2.63;;
59042;SDS011;44826;51.596;5.624;2023-11-19T10:05:44;24.30;;;3.00;;
59042;SDS011;44826;51.596;5.624;2023-11-19T10:08:09;21.90;;;3.58;;
59042;SDS011;44826;51.596;5.624;2023-11-19T10:10:36;19.38;;;2.90;;
59042;SDS011;44826;51.596;5.624;2023-11-19T10:13:01;20.88;;;2.80;;
59042;SDS011;44826;51.596;5.624;2023-11-19T10:15:27;18.80;;;3.00;;
59042;SDS011;44826;51.596;5.624;2023-11-19T10:17:56;19.67;;;3.40;;
59042;SDS011;44826;51.596;5.624;2023-11-19T10:20:21;15.73;;;2.50;;
59042;SDS011;44826;51.596;5.624;2023-11-19T10:22:47;17.60;;;3.97;;
59042;SDS011;44826;51.596;5.624;2023-11-19T10:25:22;18.73;;;3.53;;
59042;SDS011;44826;51.596;5.624;2023-11-19T10:27:52;23.48;;;3.35;;
59042;SDS011;44826;51.596;5.624;2023-11-19T10:30:21;19.75;;;3.17;;
59042;SDS011;44826;51.596;5.624;2023-11-19T10:33:07;22.13;;;3.22;;
59042;SDS011;44826;51.596;5.624;2023-11-19T10:35:53;16.13;;;2.80;;
59042;SDS011;44826;51.596;5.624;2023-11-19T10:38:19;21.60;;;3.10;;
59042;SDS011;44826;51.596;5.624;2023-11-19T10:40:47;21.90;;;2.83;;
59042;SDS011;44826;51.596;5.624;2023-11-19T10:43:12;17.80;;;2.72;;
59042;SDS011;44826;51.596;5.624;2023-11-19T10:45:38;19.05;;;3.28;;
59042;SDS011;44826;51.596;5.624;2023-11-19T10:48:04;18.83;;;2.83;;
59042;SDS011;44826;51.596;5.624;2023-11-19T10:50:34;18.55;;;2.55;;
59042;SDS011;44826;51.596;5.624;2023-11-19T10:53:00;18.60;;;2.70;;
59042;SDS011;44826;51.596;5.624;2023-11-19T10:55:30;16.38;;;2.85;;
59042;SDS011;44826;51.596;5.624;2023-11-19T10:57:58;18.95;;;2.50;;
59042;SDS011;44826;51.596;5.624;2023-11-19T11:00:24;19.13;;;2.70;;
59042;SDS011;44826;51.596;5.624;2023-11-19T11:02:53;19.15;;;2.58;;
59042;SDS011;44826;51.596;5.624;2023-11-19T11:05:21;19.50;;;2.60;;
59042;SDS011;44826;51.596;5.624;2023-11-19T11:07:47;20.25;;;2.75;;
59042;SDS011;44826;51.596;5.624;2023-11-19T11:10:14;19.60;;;2.70;;
59042;SDS011;44826;51.596;5.624;2023-11-19T11:12:41;29.10;;;4.00;;
59042;SDS011;44826;51.596;5.624;2023-11-19T11:15:06;17.60;;;2.83;;
59042;SDS011;44826;51.596;5.624;2023-11-19T11:17:33;19.08;;;2.97;;
59042;SDS011;44826;51.596;5.624;2023-11-19T11:19:59;19.95;;;2.92;;
59042;SDS011;44826;51.596;5.624;2023-11-19T11:22:24;18.85;;;2.80;;
59042;SDS011;44826;51.596;5.624;2023-11-19T11:30:55;20.92;;;2.88;;
59042;SDS011;44826;51.596;5.624;2023-11-19T11:33:26;16.42;;;3.03;;
59042;SDS011;44826;51.596;5.624;2023-11-19T11:36:42;19.02;;;2.67;;
59042;SDS011;44826;51.596;5.624;2023-11-19T11:39:20;15.65;;;2.60;;
59042;SDS011;44826;51.596;5.624;2023-11-19T11:41:47;18.13;;;3.08;;
59042;SDS011;44826;51.596;5.624;2023-11-19T11:44:12;17.75;;;3.30;;
59042;SDS011;44826;51.596;5.624;2023-11-19T11:49:06;14.38;;;2.65;;
59042;SDS011;44826;51.596;5.624;2023-11-19T11:54:09;14.82;;;2.95;;
59042;SDS011;44826;51.596;5.624;2023-11-19T11:56:38;14.50;;;2.40;;
59042;SDS011;44826;51.596;5.624;2023-11-19T11:59:19;13.13;;;2.30;;
59042;SDS011;44826;51.596;5.624;2023-11-19T12:01:57;13.37;;;2.30;;
59042;SDS011;44826;51.596;5.624;2023-11-19T12:04:25;15.27;;;2.30;;
59042;SDS011;44826;51.596;5.624;2023-11-19T12:07:02;8.65;;;1.83;;
59042;SDS011;44826;51.596;5.624;2023-11-19T12:09:29;11.85;;;2.53;;
59042;SDS011;44826;51.596;5.624;2023-11-19T12:19:57;13.65;;;2.15;;
59042;SDS011;44826;51.596;5.624;2023-11-19T12:22:24;14.88;;;2.08;;
59042;SDS011;44826;51.596;5.624;2023-11-19T12:24:50;14.50;;;2.30;;
59042;SDS011;44826;51.596;5.624;2023-11-19T12:27:16;14.13;;;2.63;;
59042;SDS011;44826;51.596;5.624;2023-11-19T12:29:42;13.40;;;2.33;;
59042;SDS011;44826;51.596;5.624;2023-11-19T12:32:10;17.50;;;2.38;;
59042;SDS011;44826;51.596;5.624;2023-11-19T12:34:36;15.50;;;2.80;;
59042;SDS011;44826;51.596;5.624;2023-11-19T12:37:04;14.48;;;2.80;;
59042;SDS011;44826;51.596;5.624;2023-11-19T12:39:30;12.75;;;2.45;;
59042;SDS011;44826;51.596;5.624;2023-11-19T12:41:56;14.35;;;2.22;;
59042;SDS011;44826;51.596;5.624;2023-11-19T12:44:24;13.73;;;2.30;;
59042;SDS011;44826;51.596;5.624;2023-11-19T12:47:05;15.48;;;2.45;;
59042;SDS011;44826;51.596;5.624;2023-11-19T12:49:32;12.38;;;2.35;;
59042;SDS011;44826;51.596;5.624;2023-11-19T12:51:58;15.60;;;2.40;;
59042;SDS011;44826;51.596;5.624;2023-11-19T12:54:37;20.80;;;2.78;;
59042;SDS011;44826;51.596;5.624;2023-11-19T12:57:02;16.33;;;2.58;;
59042;SDS011;44826;51.596;5.624;2023-11-19T12:59:29;12.30;;;2.50;;
59042;SDS011;44826;51.596;5.624;2023-11-19T13:01:56;18.13;;;2.40;;
59042;SDS011;44826;51.596;5.624;2023-11-19T13:04:22;14.48;;;2.63;;
59042;SDS011;44826;51.596;5.624;2023-11-19T13:06:49;11.80;;;2.42;;
59042;SDS011;44826;51.596;5.624;2023-11-19T13:09:21;17.90;;;2.65;;
59042;SDS011;44826;51.596;5.624;2023-11-19T13:11:50;12.27;;;2.60;;
59042;SDS011;44826;51.596;5.624;2023-11-19T13:14:17;12.93;;;2.40;;
59042;SDS011;44826;51.596;5.624;2023-11-19T13:16:43;17.23;;;2.65;;
59042;SDS011;44826;51.596;5.624;2023-11-19T13:19:11;13.70;;;2.17;;
59042;SDS011;44826;51.596;5.624;2023-11-19T13:21:37;12.88;;;2.70;;
59042;SDS011;44826;51.596;5.624;2023-11-19T13:24:04;14.75;;;2.45;;
59042;SDS011;44826;51.596;5.624;2023-11-19T13:26:33;13.93;;;2.38;;
59042;SDS011;44826;51.596;5.624;2023-11-19T13:28:58;13.55;;;2.60;;
59042;SDS011;44826;51.596;5.624;2023-11-19T13:31:23;13.98;;;2.53;;
59042;SDS011;44826;51.596;5.624;2023-11-19T13:33:49;11.52;;;2.22;;
59042;SDS011;44826;51.596;5.624;2023-11-19T13:36:14;18.23;;;3.05;;
59042;SDS011;44826;51.596;5.624;2023-11-19T13:38:40;13.80;;;2.10;;
59042;SDS011;44826;51.596;5.624;2023-11-19T13:41:07;11.40;;;2.30;;
59042;SDS011;44826;51.596;5.624;2023-11-19T13:43:35;17.13;;;2.30;;
59042;SDS011;44826;51.596;5.624;2023-11-19T13:46:00;10.55;;;2.38;;
59042;SDS011;44826;51.596;5.624;2023-11-19T13:48:26;15.93;;;2.00;;
59042;SDS011;44826;51.596;5.624;2023-11-19T13:50:54;9.90;;;2.17;;
59042;SDS011;44826;51.596;5.624;2023-11-19T13:53:20;12.40;;;2.22;;
59042;SDS011;44826;51.596;5.624;2023-11-19T13:55:46;10.25;;;2.55;;
59042;SDS011;44826;51.596;5.624;2023-11-19T13:58:12;13.68;;;2.42;;
59042;SDS011;44826;51.596;5.624;2023-11-19T14:00:38;13.55;;;2.58;;
59042;SDS011;44826;51.596;5.624;2023-11-19T14:03:03;11.48;;;2.50;;
59042;SDS011;44826;51.596;5.624;2023-11-19T14:05:28;11.05;;;2.00;;
59042;SDS011;44826;51.596;5.624;2023-11-19T14:07:54;16.85;;;2.20;;
59042;SDS011;44826;51.596;5.624;2023-11-19T14:10:21;11.77;;;1.75;;
59042;SDS011;44826;51.596;5.624;2023-11-19T14:12:47;15.20;;;2.47;;
59042;SDS011;44826;51.596;5.624;2023-11-19T14:15:12;13.10;;;2.67;;
59042;SDS011;44826;51.596;5.624;2023-11-19T14:17:38;12.43;;;2.10;;
59042;SDS011;44826;51.596;5.624;2023-11-19T14:20:04;12.43;;;2.03;;
59042;SDS011;44826;51.596;5.624;2023-11-19T14:22:37;12.63;;;2.30;;
59042;SDS011;44826;51.596;5.624;2023-11-19T14:25:06;15.57;;;2.35;;
59042;SDS011;44826;51.596;5.624;2023-11-19T14:27:38;14.63;;;2.55;;
59042;SDS011;44826;51.596;5.624;2023-11-19T14:30:05;12.02;;;2.35;;
59042;SDS011;44826;51.596;5.624;2023-11-19T14:32:31;12.05;;;2.58;;
59042;SDS011;44826;51.596;5.624;2023-11-19T14:34:56;10.25;;;2.10;;
59042;SDS011;44826;51.596;5.624;2023-11-19T14:37:22;9.60;;;2.00;;
59042;SDS011;44826;51.596;5.624;2023-11-19T14:39:47;12.45;;;2.33;;
59042;SDS011;44826;51.596;5.624;2023-11-19T14:42:15;10.00;;;2.10;;
59042;SDS011;44826;51.596;5.624;2023-11-19T14:44:40;14.13;;;2.28;;
59042;SDS011;44826;51.596;5.624;2023-11-19T14:47:05;12.15;;;2.05;;
59042;SDS011;44826;51.596;5.624;2023-11-19T14:49:31;14.95;;;2.53;;
59042;SDS011;44826;51.596;5.624;2023-11-19T14:51:56;13.05;;;2.08;;
59042;SDS011;44826;51.596;5.624;2023-11-19T14:54:21;8.45;;;1.95;;
59042;SDS011;44826;51.596;5.624;2023-11-19T14:56:47;12.35;;;2.30;;